createdAt,value
2022-10-16T00:01:51.590Z,100.00
2022-10-16T00:04:20.617Z,100.00
2022-10-16T00:06:49.620Z,100.00
2022-10-16T00:09:18.658Z,100.00
2022-10-16T00:11:47.666Z,99.71
2022-10-16T00:14:18.589Z,99.93
2022-10-16T00:16:47.565Z,99.16
2022-10-16T00:19:16.750Z,98.26
2022-10-16T00:21:45.713Z,98.40
2022-10-16T00:24:14.683Z,95.66
2022-10-16T00:26:44.249Z,96.49
2022-10-16T00:29:13.439Z,96.75
2022-10-16T00:31:43.723Z,95.77
2022-10-16T00:34:12.720Z,95.61
2022-10-16T00:36:41.683Z,94.01
2022-10-16T00:39:10.702Z,93.26
2022-10-16T00:41:39.649Z,93.58
2022-10-16T00:44:38.413Z,91.91
2022-10-16T00:47:11.574Z,91.24
2022-10-16T00:49:40.702Z,89.98
2022-10-16T00:52:09.828Z,89.28
2022-10-16T00:54:39.043Z,89.36
2022-10-16T00:57:09.041Z,87.10
2022-10-16T00:59:40.759Z,87.48
2022-10-16T01:02:14.089Z,87.33
2022-10-16T01:04:47.895Z,88.79
2022-10-16T01:07:26.698Z,87.90
2022-10-16T01:10:04.970Z,86.96
2022-10-16T01:12:45.486Z,87.73
2022-10-16T01:15:24.977Z,86.33
2022-10-16T01:18:01.892Z,86.65
2022-10-16T01:20:35.088Z,87.76
2022-10-16T01:23:29.554Z,86.24
2022-10-16T01:26:12.709Z,86.32
2022-10-16T01:28:50.091Z,85.22
2022-10-16T01:31:24.455Z,85.61
2022-10-16T01:33:58.769Z,85.55
2022-10-16T01:36:32.997Z,84.79
2022-10-16T01:39:04.737Z,84.60
2022-10-16T01:41:37.284Z,85.52
2022-10-16T01:44:11.674Z,85.76
2022-10-16T01:46:44.409Z,85.25
2022-10-16T01:49:14.830Z,85.62
2022-10-16T01:51:47.143Z,86.48
2022-10-16T01:54:18.456Z,85.94
2022-10-16T01:56:50.651Z,85.75
2022-10-16T01:59:24.843Z,86.09
2022-10-16T02:02:00.485Z,85.63
2022-10-16T02:04:33.297Z,86.39
2022-10-16T02:07:02.911Z,86.04
2022-10-16T02:09:34.203Z,86.29
2022-10-16T02:12:08.346Z,87.19
2022-10-16T02:14:40.187Z,85.93
2022-10-16T02:17:14.180Z,86.85
2022-10-16T02:19:44.830Z,87.06
2022-10-16T02:22:20.286Z,86.56
2022-10-16T02:24:55.877Z,86.20
2022-10-16T02:27:34.129Z,86.75
2022-10-16T02:30:09.600Z,87.20
2022-10-16T02:32:41.978Z,87.17
2022-10-16T02:35:12.155Z,86.82
2022-10-16T02:37:42.550Z,87.36
2022-10-16T02:40:12.414Z,86.62
2022-10-16T02:42:42.400Z,86.59
2022-10-16T02:45:13.947Z,86.65
2022-10-16T02:47:42.894Z,87.32
2022-10-16T02:50:12.254Z,86.58
2022-10-16T02:52:41.326Z,86.63
2022-10-16T02:55:10.551Z,85.87
2022-10-16T02:57:41.228Z,85.28
2022-10-16T03:00:14.367Z,86.07
2022-10-16T03:02:43.715Z,86.50
2022-10-16T03:05:13.174Z,86.88
2022-10-16T03:07:42.541Z,86.85
2022-10-16T03:10:11.570Z,86.07
2022-10-16T03:12:40.469Z,86.63
2022-10-16T03:15:10.719Z,87.22
2022-10-16T03:17:41.015Z,87.97
2022-10-16T03:20:10.730Z,87.72
2022-10-16T03:22:39.710Z,88.28
2022-10-16T03:25:09.509Z,88.48
2022-10-16T03:27:38.555Z,88.89
2022-10-16T03:30:08.573Z,88.42
2022-10-16T03:32:37.585Z,88.75
2022-10-16T03:35:08.895Z,89.04
2022-10-16T03:37:38.144Z,88.89
2022-10-16T03:40:08.315Z,87.91
2022-10-16T03:42:37.651Z,88.94
2022-10-16T03:45:07.624Z,88.97
2022-10-16T03:47:36.553Z,88.76
2022-10-16T03:50:08.483Z,88.56
2022-10-16T03:52:37.466Z,88.54
2022-10-16T03:55:07.267Z,88.63
2022-10-16T03:57:36.258Z,88.37
2022-10-16T04:00:05.838Z,88.28
2022-10-16T04:02:41.829Z,87.44
2022-10-16T04:05:12.409Z,87.60
2022-10-16T04:07:41.348Z,88.60
2022-10-16T04:10:11.071Z,87.24
2022-10-16T04:12:39.974Z,88.08
2022-10-16T04:15:09.880Z,88.76
2022-10-16T04:17:38.812Z,87.85
2022-10-16T04:20:08.729Z,86.50
2022-10-16T04:22:38.978Z,86.80
2022-10-16T04:25:08.588Z,86.91
2022-10-16T04:27:39.978Z,87.84
2022-10-16T04:30:11.949Z,86.82
2022-10-16T04:32:40.832Z,86.59
2022-10-16T04:35:10.909Z,86.45
2022-10-16T04:37:41.228Z,86.58
2022-10-16T04:40:10.742Z,86.23
2022-10-16T04:42:39.862Z,85.99
2022-10-16T04:45:12.093Z,84.92
2022-10-16T04:47:43.799Z,86.41
2022-10-16T04:50:12.731Z,86.83
2022-10-16T04:52:42.991Z,86.36
2022-10-16T04:55:11.917Z,85.53
2022-10-16T04:57:40.827Z,86.46
2022-10-16T05:00:11.184Z,85.20
2022-10-16T05:02:40.134Z,86.18
2022-10-16T05:05:09.691Z,86.73
2022-10-16T05:07:38.612Z,87.02
2022-10-16T05:10:09.413Z,86.47
2022-10-16T05:12:38.354Z,86.16
2022-10-16T05:15:08.498Z,86.14
2022-10-16T05:17:41.158Z,87.05
2022-10-16T05:20:13.502Z,87.00
2022-10-16T05:22:42.420Z,87.48
2022-10-16T05:25:13.072Z,88.08
2022-10-16T05:27:41.993Z,87.44
2022-10-16T05:30:12.526Z,87.77
2022-10-16T05:32:41.769Z,87.86
2022-10-16T05:35:12.679Z,88.30
2022-10-16T05:37:41.898Z,88.61
2022-10-16T05:40:13.859Z,88.22
2022-10-16T05:42:43.159Z,87.23
2022-10-16T05:45:13.451Z,87.42
2022-10-16T05:47:42.724Z,87.85
2022-10-16T05:50:11.651Z,88.05
2022-10-16T05:52:40.622Z,88.19
2022-10-16T05:55:10.462Z,88.37
2022-10-16T05:57:40.721Z,88.15
2022-10-16T06:00:11.023Z,88.65
2022-10-16T06:02:43.007Z,88.11
2022-10-16T06:05:11.990Z,88.04
2022-10-16T06:07:40.864Z,88.50
2022-10-16T06:10:10.787Z,87.90
2022-10-16T06:12:41.036Z,88.00
2022-10-16T06:15:10.655Z,87.26
2022-10-16T06:17:39.590Z,87.97
2022-10-16T06:20:09.193Z,88.13
2022-10-16T06:22:38.065Z,89.04
2022-10-16T06:25:07.766Z,89.17
2022-10-16T06:27:36.686Z,89.72
2022-10-16T06:30:08.457Z,90.52
2022-10-16T06:32:37.378Z,90.58
2022-10-16T06:35:06.779Z,91.37
2022-10-16T06:37:35.671Z,92.09
2022-10-16T06:40:05.285Z,92.35
2022-10-16T06:42:34.227Z,92.72
2022-10-16T06:45:03.162Z,93.20
2022-10-16T06:47:33.424Z,92.78
2022-10-16T06:50:02.485Z,93.19
2022-10-16T06:52:31.721Z,93.31
2022-10-16T06:55:00.744Z,93.09
2022-10-16T06:57:29.639Z,92.55
2022-10-16T06:59:58.566Z,92.84
2022-10-16T07:02:27.771Z,91.19
2022-10-16T07:04:58.788Z,89.96
2022-10-16T07:07:27.675Z,89.57
2022-10-16T07:09:56.770Z,89.71
2022-10-16T07:12:25.890Z,88.55
2022-10-16T07:14:55.714Z,88.29
2022-10-16T07:17:24.685Z,87.42
2022-10-16T07:19:54.321Z,87.20
2022-10-16T07:22:24.859Z,86.58
2022-10-16T07:24:53.929Z,85.73
2022-10-16T07:27:24.980Z,85.36
2022-10-16T07:29:53.971Z,86.22
2022-10-16T07:32:23.113Z,85.22
2022-10-16T07:34:52.242Z,84.82
2022-10-16T07:37:21.289Z,84.71
2022-10-16T07:39:51.554Z,84.43
2022-10-16T07:42:21.043Z,84.57
2022-10-16T07:44:49.936Z,84.53
2022-10-16T07:47:18.891Z,84.57
2022-10-16T07:49:47.778Z,84.61
2022-10-16T07:52:16.726Z,82.71
2022-10-16T07:54:45.701Z,82.44
2022-10-16T07:57:20.150Z,83.16
2022-10-16T07:59:49.159Z,84.44
2022-10-16T08:02:18.158Z,83.33
2022-10-16T08:04:49.290Z,84.32
2022-10-16T08:07:18.325Z,83.06
2022-10-16T08:09:50.630Z,84.39
2022-10-16T08:12:20.963Z,82.92
2022-10-16T08:14:49.936Z,83.60
2022-10-16T08:17:19.005Z,83.63
2022-10-16T08:19:48.360Z,84.21
2022-10-16T08:22:17.378Z,83.97
2022-10-16T08:24:46.395Z,83.84
2022-10-16T08:27:15.504Z,82.75
2022-10-16T08:29:45.808Z,82.49
2022-10-16T08:32:14.904Z,83.63
2022-10-16T08:34:43.842Z,82.84
2022-10-16T08:37:14.677Z,82.62
2022-10-16T08:39:43.620Z,82.34
2022-10-16T08:42:36.573Z,81.96
2022-10-16T08:45:22.870Z,79.56
2022-10-16T08:48:02.535Z,79.47
2022-10-16T08:50:34.815Z,79.34
2022-10-16T08:53:05.916Z,78.74
2022-10-16T08:55:40.479Z,78.80
2022-10-16T08:58:14.990Z,79.62
2022-10-16T09:00:48.666Z,79.22
2022-10-16T09:03:29.576Z,78.16
2022-10-16T09:06:28.747Z,76.19
2022-10-16T09:09:10.607Z,76.92
2022-10-16T09:11:51.049Z,77.10
2022-10-16T09:14:42.539Z,78.02
2022-10-16T09:17:45.189Z,77.76
2022-10-16T09:20:28.979Z,76.42
2022-10-16T09:23:12.469Z,74.81
2022-10-16T09:25:44.858Z,76.25
2022-10-16T09:28:13.982Z,74.58
2022-10-16T09:30:42.993Z,73.25
2022-10-16T09:33:15.028Z,75.34
2022-10-16T09:35:46.185Z,73.97
2022-10-16T09:38:25.187Z,71.67
2022-10-16T09:40:59.378Z,72.72
2022-10-16T09:43:41.103Z,72.66
2022-10-16T09:46:23.066Z,71.07
2022-10-16T09:48:55.639Z,73.41
2022-10-16T09:51:27.268Z,71.42
2022-10-16T09:54:02.540Z,72.15
2022-10-16T09:56:34.265Z,70.86
2022-10-16T09:59:05.332Z,71.20
2022-10-16T10:01:40.541Z,71.51
2022-10-16T10:04:12.197Z,70.42
2022-10-16T10:06:47.355Z,69.28
2022-10-16T10:09:23.194Z,69.00
2022-10-16T10:11:57.173Z,69.96
2022-10-16T10:14:30.016Z,67.78
2022-10-16T10:17:15.065Z,70.30
2022-10-16T10:19:52.544Z,68.92
2022-10-16T10:22:32.243Z,68.88
2022-10-16T10:25:26.566Z,69.07
2022-10-16T10:28:10.110Z,68.36
2022-10-16T10:30:44.817Z,66.38
2022-10-16T10:33:26.834Z,66.87
2022-10-16T10:36:09.598Z,66.30
2022-10-16T10:38:45.766Z,66.52
2022-10-16T10:41:43.147Z,65.16
2022-10-16T10:44:20.484Z,67.28
2022-10-16T10:46:56.932Z,65.72
2022-10-16T10:49:43.288Z,67.32
2022-10-16T10:52:37.540Z,68.99
2022-10-16T10:55:21.330Z,70.40
2022-10-16T10:58:07.861Z,70.98
2022-10-16T11:00:50.698Z,69.83
2022-10-16T11:03:42.883Z,66.18
2022-10-16T11:06:17.414Z,64.37
2022-10-16T11:08:53.767Z,64.62
2022-10-16T11:11:32.665Z,62.07
2022-10-16T11:14:06.561Z,63.80
2022-10-16T11:16:41.007Z,63.63
2022-10-16T11:19:20.746Z,62.17
2022-10-16T11:21:58.640Z,62.17
2022-10-16T11:24:42.945Z,61.36
2022-10-16T11:27:17.894Z,59.74
2022-10-16T11:29:55.449Z,60.68
2022-10-16T11:32:31.054Z,62.65
2022-10-16T11:35:10.068Z,58.32
2022-10-16T11:37:44.092Z,60.32
2022-10-16T11:40:24.548Z,63.45
2022-10-16T11:42:59.863Z,63.04
2022-10-16T11:45:36.302Z,63.43
2022-10-16T11:48:16.961Z,64.19
2022-10-16T11:50:52.244Z,61.13
2022-10-16T11:53:39.555Z,61.53
2022-10-16T11:56:10.129Z,62.37
2022-10-16T11:58:51.091Z,58.02
2022-10-16T12:01:26.266Z,58.00
2022-10-16T12:04:16.571Z,56.99
2022-10-16T12:06:49.566Z,56.36
2022-10-16T12:09:24.828Z,56.06
2022-10-16T12:11:55.632Z,55.47
2022-10-16T12:15:11.661Z,54.29
2022-10-16T12:17:37.212Z,57.25
2022-10-16T12:20:24.474Z,57.82
2022-10-16T12:22:56.529Z,56.54
2022-10-16T12:25:29.400Z,56.64
2022-10-16T12:28:04.990Z,55.97
2022-10-16T12:30:36.300Z,59.66
2022-10-16T12:33:07.848Z,55.40
2022-10-16T12:35:45.973Z,55.07
2022-10-16T12:38:20.387Z,57.54
2022-10-16T12:40:59.865Z,57.23
2022-10-16T12:43:39.141Z,55.40
2022-10-16T12:46:24.837Z,53.85
2022-10-16T12:49:08.699Z,54.21
2022-10-16T12:51:39.748Z,58.23
2022-10-16T12:54:16.481Z,55.25
2022-10-16T12:56:57.586Z,57.08
2022-10-16T12:59:40.235Z,58.47
2022-10-16T13:02:43.459Z,52.93
2022-10-16T13:05:26.415Z,52.38
2022-10-16T13:08:06.705Z,51.11
2022-10-16T13:10:42.222Z,53.37
2022-10-16T13:13:49.361Z,53.19
2022-10-16T13:16:26.833Z,54.22
2022-10-16T13:19:12.785Z,53.75
2022-10-16T13:21:49.731Z,54.31
2022-10-16T13:24:32.689Z,55.51
2022-10-16T13:27:11.005Z,59.50
2022-10-16T13:29:42.277Z,60.24
2022-10-16T13:32:17.899Z,61.76
2022-10-16T13:34:49.541Z,62.69
2022-10-16T13:37:22.439Z,62.02
2022-10-16T13:39:52.475Z,61.74
2022-10-16T13:42:30.628Z,61.38
2022-10-16T13:44:59.682Z,62.55
2022-10-16T13:47:31.796Z,62.79
2022-10-16T13:50:05.962Z,62.39
2022-10-16T13:52:36.192Z,62.30
2022-10-16T13:55:07.510Z,61.35
2022-10-16T13:57:37.651Z,59.25
2022-10-16T14:00:21.630Z,58.62
2022-10-16T14:02:59.069Z,58.31
2022-10-16T14:05:28.155Z,56.69
2022-10-16T14:07:58.605Z,56.45
2022-10-16T14:10:32.270Z,57.18
2022-10-16T14:13:03.510Z,56.71
2022-10-16T14:15:34.950Z,57.05
2022-10-16T14:18:07.422Z,56.04
2022-10-16T14:20:37.425Z,54.73
2022-10-16T14:23:22.155Z,58.84
2022-10-16T14:25:51.355Z,60.65
2022-10-16T14:28:22.738Z,60.92
2022-10-16T14:30:54.583Z,60.69
2022-10-16T14:33:27.192Z,62.71
2022-10-16T14:36:05.272Z,62.96
2022-10-16T14:38:35.535Z,62.36
2022-10-16T14:41:06.239Z,62.52
2022-10-16T14:43:38.547Z,61.80
2022-10-16T14:46:13.198Z,62.32
2022-10-16T14:48:45.916Z,62.58
2022-10-16T14:51:16.641Z,62.34
2022-10-16T14:53:45.567Z,63.22
2022-10-16T14:56:21.571Z,64.06
2022-10-16T14:58:51.857Z,61.63
2022-10-16T15:01:21.283Z,60.83
2022-10-16T15:03:53.332Z,60.43
2022-10-16T15:06:22.438Z,61.18
2022-10-16T15:08:51.407Z,59.07
2022-10-16T15:11:21.564Z,60.90
2022-10-16T15:13:50.679Z,61.70
2022-10-16T15:16:19.879Z,60.90
2022-10-16T15:18:48.846Z,62.14
2022-10-16T15:21:26.340Z,62.86
2022-10-16T15:23:55.497Z,62.85
2022-10-16T15:26:24.499Z,63.78
2022-10-16T15:28:53.798Z,63.03
2022-10-16T15:31:23.331Z,63.13
2022-10-16T15:33:54.572Z,62.78
2022-10-16T15:36:34.718Z,64.32
2022-10-16T15:39:03.933Z,64.06
2022-10-16T15:41:32.951Z,65.89
2022-10-16T15:44:01.976Z,65.33
2022-10-16T15:46:31.910Z,64.90
2022-10-16T15:49:01.287Z,66.71
2022-10-16T15:51:33.839Z,66.33
2022-10-16T15:54:03.217Z,66.68
2022-10-16T15:56:34.167Z,66.72
2022-10-16T15:59:03.714Z,67.18
2022-10-16T16:01:35.247Z,67.93
2022-10-16T16:04:10.936Z,68.18
2022-10-16T16:06:46.669Z,68.83
2022-10-16T16:09:15.944Z,69.41
2022-10-16T16:11:44.883Z,70.69
2022-10-16T16:14:15.818Z,71.22
2022-10-16T16:16:44.980Z,71.98
2022-10-16T16:19:13.892Z,72.66
2022-10-16T16:21:42.826Z,72.62
2022-10-16T16:24:13.667Z,73.76
2022-10-16T16:26:44.632Z,73.42
2022-10-16T16:29:16.154Z,73.92
2022-10-16T16:31:45.347Z,73.92
2022-10-16T16:34:14.356Z,75.47
2022-10-16T16:36:43.331Z,75.67
2022-10-16T16:39:13.610Z,76.38
2022-10-16T16:41:42.525Z,76.95
2022-10-16T16:44:12.441Z,77.80
2022-10-16T16:46:43.734Z,78.02
2022-10-16T16:49:14.029Z,78.59
2022-10-16T16:51:43.690Z,78.26
2022-10-16T16:54:14.919Z,78.95
2022-10-16T16:56:45.228Z,79.98
2022-10-16T16:59:16.475Z,80.29
2022-10-16T17:01:45.556Z,80.96
2022-10-16T17:04:16.040Z,80.40
2022-10-16T17:06:45.098Z,80.73
2022-10-16T17:09:16.269Z,80.54
2022-10-16T17:11:46.645Z,80.41
2022-10-16T17:14:16.210Z,81.72
2022-10-16T17:16:46.130Z,81.92
2022-10-16T17:19:17.692Z,82.85
2022-10-16T17:21:46.836Z,82.71
2022-10-16T17:24:18.461Z,84.34
2022-10-16T17:26:49.135Z,84.45
2022-10-16T17:29:19.267Z,84.57
2022-10-16T17:31:50.324Z,84.87
2022-10-16T17:34:19.778Z,85.48
2022-10-16T17:36:48.759Z,86.19
2022-10-16T17:39:19.674Z,87.55
2022-10-16T17:41:49.150Z,88.72
2022-10-16T17:44:20.822Z,89.47
2022-10-16T17:46:51.803Z,89.85
2022-10-16T17:49:21.731Z,90.83
2022-10-16T17:51:52.987Z,91.94
2022-10-16T17:54:23.497Z,91.95
2022-10-16T17:56:52.457Z,91.51
2022-10-16T17:59:23.062Z,90.76
2022-10-16T18:01:52.579Z,91.03
2022-10-16T18:04:21.771Z,91.76
2022-10-16T18:06:50.768Z,92.32
2022-10-16T18:09:22.532Z,93.69
2022-10-16T18:11:59.537Z,93.76
2022-10-16T18:14:30.102Z,94.41
2022-10-16T18:17:00.311Z,94.10
2022-10-16T18:19:29.503Z,94.78
2022-10-16T18:21:59.063Z,94.69
2022-10-16T18:24:30.124Z,95.00
2022-10-16T18:26:59.183Z,94.50
2022-10-16T18:29:29.241Z,94.96
2022-10-16T18:31:58.441Z,95.62
2022-10-16T18:34:27.954Z,95.76
2022-10-16T18:36:57.547Z,95.74
2022-10-16T18:39:28.061Z,94.46
2022-10-16T18:41:59.855Z,95.70
2022-10-16T18:44:31.054Z,96.01
2022-10-16T18:47:00.229Z,95.97
2022-10-16T18:49:29.682Z,96.61
2022-10-16T18:52:00.633Z,95.52
2022-10-16T18:54:31.456Z,94.99
2022-10-16T18:57:00.694Z,95.69
2022-10-16T18:59:30.074Z,95.62
2022-10-16T19:01:59.095Z,96.99
2022-10-16T19:04:28.735Z,96.51
2022-10-16T19:06:57.941Z,97.55
2022-10-16T19:09:26.982Z,97.55
2022-10-16T19:11:59.528Z,97.40
2022-10-16T19:14:30.022Z,98.63
2022-10-16T19:16:59.336Z,98.03
2022-10-16T19:19:28.338Z,98.07
2022-10-16T19:22:11.365Z,97.96
2022-10-16T19:24:40.824Z,98.88
2022-10-16T19:27:11.848Z,98.87
2022-10-16T19:29:40.782Z,98.43
2022-10-16T19:32:10.054Z,98.03
2022-10-16T19:34:38.991Z,99.37
2022-10-16T19:37:10.458Z,99.02
2022-10-16T19:39:39.430Z,99.63
2022-10-16T19:42:09.673Z,99.26
2022-10-16T19:44:39.001Z,99.37
2022-10-16T19:47:07.953Z,100.00
2022-10-16T19:49:37.352Z,100.00
2022-10-16T19:52:06.449Z,100.00
2022-10-16T19:54:36.557Z,100.00
2022-10-16T19:57:05.956Z,100.00
2022-10-16T19:59:38.043Z,100.00
2022-10-16T20:02:10.525Z,100.00
2022-10-16T20:04:39.516Z,100.00
2022-10-16T20:07:08.438Z,100.00
2022-10-16T20:09:37.449Z,100.00
2022-10-16T20:12:06.817Z,100.00
2022-10-16T20:14:37.173Z,100.00
2022-10-16T20:17:06.308Z,100.00
2022-10-16T20:19:35.345Z,100.00
2022-10-16T20:22:04.654Z,100.00
2022-10-16T20:24:33.630Z,100.00
2022-10-16T20:27:02.724Z,100.00
2022-10-16T20:29:31.704Z,100.00
2022-10-16T20:32:02.081Z,100.00
2022-10-16T20:34:31.190Z,100.00
2022-10-16T20:37:00.234Z,100.00
2022-10-16T20:39:29.186Z,100.00
2022-10-16T20:42:00.883Z,100.00
2022-10-16T20:44:29.888Z,100.00
2022-10-16T20:46:58.795Z,100.00
2022-10-16T20:49:40.227Z,100.00
2022-10-16T20:52:09.886Z,100.00
2022-10-16T20:54:38.895Z,100.00
2022-10-16T20:57:07.947Z,100.00
2022-10-16T20:59:37.027Z,100.00
2022-10-16T21:02:11.977Z,100.00
2022-10-16T21:04:44.494Z,100.00
2022-10-16T21:07:13.456Z,100.00
2022-10-16T21:09:43.434Z,100.00
2022-10-16T21:12:12.589Z,100.00
2022-10-16T21:14:46.506Z,100.00
2022-10-16T21:17:25.502Z,100.00
2022-10-16T21:19:55.897Z,100.00
2022-10-16T21:22:25.104Z,100.00
2022-10-16T21:24:54.329Z,100.00
2022-10-16T21:27:23.297Z,100.00
2022-10-16T21:29:54.804Z,100.00
2022-10-16T21:32:23.804Z,100.00
2022-10-16T21:34:52.771Z,100.00
2022-10-16T21:37:23.048Z,100.00
2022-10-16T21:39:51.973Z,100.00
2022-10-16T21:42:20.941Z,100.00
2022-10-16T21:44:49.884Z,100.00
2022-10-16T21:47:19.120Z,100.00
2022-10-16T21:49:48.073Z,100.00
2022-10-16T21:52:17.136Z,100.00
2022-10-16T21:54:47.398Z,100.00
2022-10-16T21:57:16.345Z,100.00
2022-10-16T21:59:45.301Z,100.00
2022-10-16T22:02:14.236Z,100.00
2022-10-16T22:04:43.224Z,100.00
2022-10-16T22:07:12.158Z,100.00
2022-10-16T22:09:41.278Z,100.00
2022-10-16T22:12:11.629Z,100.00
2022-10-16T22:14:41.750Z,100.00
2022-10-16T22:17:10.765Z,100.00
2022-10-16T22:19:39.811Z,100.00
2022-10-16T22:22:08.896Z,100.00
2022-10-16T22:24:38.912Z,100.00
2022-10-16T22:27:07.876Z,100.00
2022-10-16T22:29:38.174Z,100.00
2022-10-16T22:32:07.199Z,100.00
2022-10-16T22:34:36.223Z,100.00
2022-10-16T22:37:05.180Z,100.00
2022-10-16T22:39:34.260Z,100.00
2022-10-16T22:42:03.795Z,100.00
2022-10-16T22:44:32.768Z,100.00
2022-10-16T22:47:03.118Z,100.00
2022-10-16T22:49:32.099Z,100.00
2022-10-16T22:52:02.690Z,100.00
2022-10-16T22:54:31.653Z,100.00
2022-10-16T22:57:00.590Z,100.00
2022-10-16T22:59:29.569Z,100.00
2022-10-16T23:01:58.534Z,100.00
2022-10-16T23:04:28.836Z,100.00
2022-10-16T23:06:59.065Z,100.00
2022-10-16T23:09:28.111Z,100.00
2022-10-16T23:11:57.043Z,100.00
2022-10-16T23:14:26.140Z,100.00
2022-10-16T23:16:55.071Z,100.00
2022-10-16T23:19:24.022Z,100.00
2022-10-16T23:21:54.292Z,100.00
2022-10-16T23:24:23.250Z,100.00
2022-10-16T23:26:52.187Z,100.00
2022-10-16T23:29:21.204Z,100.00
2022-10-16T23:31:50.149Z,100.00
2022-10-16T23:34:19.068Z,100.00
2022-10-16T23:36:48.460Z,100.00
2022-10-16T23:39:19.162Z,100.00
2022-10-16T23:41:48.188Z,100.00
2022-10-16T23:44:17.204Z,100.00
2022-10-16T23:46:46.160Z,100.00
2022-10-16T23:49:15.135Z,100.00
2022-10-16T23:51:44.041Z,100.00
2022-10-16T23:54:13.132Z,100.00
2022-10-16T23:56:43.476Z,100.00
2022-10-16T23:59:12.451Z,100.00
